Chesapeake, Ohio
Current Conditions -  °F | °C
As of 7:51 AM on Friday 24 Oct 2014 (Local Time) from KHTS Reporting Station
Haze Haze  
Wind Chill: 39°   Ceiling: Unl
Heat Index: 39°   Visibility: 5mi
Dew Point: 39°   Wind: 0mph
Humidity: 100%   Direction: NA
Pressure: 30.12"   Gusts: NA
Location:  38.43°N, 82.46°W
Report Text: KHTS 241151Z 00000KT 5SM BR CLR 04/04 A3012 RMK AO2 SLP201 T00390039 10050 20039 50001
Loading
Personal Weather Stations






























Interactive Weather Map
Tropical Storm Tracking
New forecast layout! Learn more

10-Day Weather Forecast

Advertisements
Track Severe Weather on mobile